sensor_id;sensor_type;location;lat;lon;timestamp;P1;durP1;ratioP1;P2;durP2;ratioP2
15116;SDS011;7659;51.038;13.786;2023-02-28T00:02:14;11.82;;;6.05;;
15116;SDS011;7659;51.038;13.786;2023-02-28T00:04:42;11.05;;;5.97;;
15116;SDS011;7659;51.038;13.786;2023-02-28T00:07:08;10.98;;;5.72;;
15116;SDS011;7659;51.038;13.786;2023-02-28T00:09:34;9.23;;;5.93;;
15116;SDS011;7659;51.038;13.786;2023-02-28T00:11:59;9.68;;;5.78;;
15116;SDS011;7659;51.038;13.786;2023-02-28T00:14:24;10.63;;;5.70;;
15116;SDS011;7659;51.038;13.786;2023-02-28T00:16:50;16.60;;;9.35;;
15116;SDS011;7659;51.038;13.786;2023-02-28T00:19:15;10.20;;;6.30;;
15116;SDS011;7659;51.038;13.786;2023-02-28T00:21:41;9.05;;;5.45;;
15116;SDS011;7659;51.038;13.786;2023-02-28T00:24:08;13.35;;;6.55;;
15116;SDS011;7659;51.038;13.786;2023-02-28T00:26:33;12.77;;;5.95;;
15116;SDS011;7659;51.038;13.786;2023-02-28T00:28:59;12.35;;;5.88;;
15116;SDS011;7659;51.038;13.786;2023-02-28T00:31:24;9.95;;;6.00;;
15116;SDS011;7659;51.038;13.786;2023-02-28T00:33:49;8.65;;;5.57;;
15116;SDS011;7659;51.038;13.786;2023-02-28T00:36:17;11.82;;;6.50;;
15116;SDS011;7659;51.038;13.786;2023-02-28T00:38:42;11.90;;;6.40;;
15116;SDS011;7659;51.038;13.786;2023-02-28T00:41:08;12.75;;;6.35;;
15116;SDS011;7659;51.038;13.786;2023-02-28T00:43:34;9.93;;;6.15;;
15116;SDS011;7659;51.038;13.786;2023-02-28T00:46:00;13.45;;;6.55;;
15116;SDS011;7659;51.038;13.786;2023-02-28T00:48:25;14.20;;;6.53;;
15116;SDS011;7659;51.038;13.786;2023-02-28T00:50:51;11.20;;;6.32;;
15116;SDS011;7659;51.038;13.786;2023-02-28T00:53:16;15.35;;;6.38;;
15116;SDS011;7659;51.038;13.786;2023-02-28T00:55:42;10.82;;;5.50;;
15116;SDS011;7659;51.038;13.786;2023-02-28T00:58:07;10.75;;;6.32;;
15116;SDS011;7659;51.038;13.786;2023-02-28T01:00:32;11.40;;;5.93;;
15116;SDS011;7659;51.038;13.786;2023-02-28T01:02:58;13.25;;;6.10;;
15116;SDS011;7659;51.038;13.786;2023-02-28T01:05:23;11.10;;;6.03;;
15116;SDS011;7659;51.038;13.786;2023-02-28T01:07:49;15.20;;;8.88;;
15116;SDS011;7659;51.038;13.786;2023-02-28T01:10:14;12.43;;;6.93;;
15116;SDS011;7659;51.038;13.786;2023-02-28T01:12:40;13.02;;;6.20;;
15116;SDS011;7659;51.038;13.786;2023-02-28T01:15:09;12.18;;;6.00;;
15116;SDS011;7659;51.038;13.786;2023-02-28T01:17:35;11.85;;;6.28;;
15116;SDS011;7659;51.038;13.786;2023-02-28T01:20:01;13.07;;;6.05;;
15116;SDS011;7659;51.038;13.786;2023-02-28T01:22:26;11.50;;;6.35;;
15116;SDS011;7659;51.038;13.786;2023-02-28T01:24:51;12.70;;;6.10;;
15116;SDS011;7659;51.038;13.786;2023-02-28T01:27:17;11.77;;;6.35;;
15116;SDS011;7659;51.038;13.786;2023-02-28T01:29:44;13.13;;;5.97;;
15116;SDS011;7659;51.038;13.786;2023-02-28T01:32:09;11.50;;;6.13;;
15116;SDS011;7659;51.038;13.786;2023-02-28T01:34:35;10.50;;;5.93;;
15116;SDS011;7659;51.038;13.786;2023-02-28T01:37:02;12.57;;;6.47;;
15116;SDS011;7659;51.038;13.786;2023-02-28T01:39:28;11.35;;;6.40;;
15116;SDS011;7659;51.038;13.786;2023-02-28T01:41:55;14.45;;;6.35;;
15116;SDS011;7659;51.038;13.786;2023-02-28T01:47:05;12.38;;;5.95;;
15116;SDS011;7659;51.038;13.786;2023-02-28T01:49:30;12.35;;;6.68;;
15116;SDS011;7659;51.038;13.786;2023-02-28T01:51:56;11.13;;;5.63;;
15116;SDS011;7659;51.038;13.786;2023-02-28T01:54:25;9.77;;;5.68;;
15116;SDS011;7659;51.038;13.786;2023-02-28T01:56:56;11.30;;;6.28;;
15116;SDS011;7659;51.038;13.786;2023-02-28T01:59:27;9.57;;;6.40;;
15116;SDS011;7659;51.038;13.786;2023-02-28T02:01:54;12.63;;;6.30;;
15116;SDS011;7659;51.038;13.786;2023-02-28T02:04:20;10.50;;;6.45;;
15116;SDS011;7659;51.038;13.786;2023-02-28T02:06:46;9.90;;;6.05;;
15116;SDS011;7659;51.038;13.786;2023-02-28T02:09:12;13.32;;;6.90;;
15116;SDS011;7659;51.038;13.786;2023-02-28T02:11:39;11.60;;;5.88;;
15116;SDS011;7659;51.038;13.786;2023-02-28T02:29:08;8.70;;;5.72;;
15116;SDS011;7659;51.038;13.786;2023-02-28T02:31:40;10.05;;;6.45;;
15116;SDS011;7659;51.038;13.786;2023-02-28T02:41:46;11.20;;;6.32;;
15116;SDS011;7659;51.038;13.786;2023-02-28T02:44:18;10.75;;;6.45;;
15116;SDS011;7659;51.038;13.786;2023-02-28T02:46:47;10.52;;;6.10;;
15116;SDS011;7659;51.038;13.786;2023-02-28T02:49:15;14.90;;;6.95;;
15116;SDS011;7659;51.038;13.786;2023-02-28T02:51:41;12.10;;;6.40;;
15116;SDS011;7659;51.038;13.786;2023-02-28T02:54:08;10.48;;;6.18;;
15116;SDS011;7659;51.038;13.786;2023-02-28T02:56:36;12.43;;;5.78;;
15116;SDS011;7659;51.038;13.786;2023-02-28T02:59:04;12.10;;;6.65;;
15116;SDS011;7659;51.038;13.786;2023-02-28T03:01:31;12.75;;;6.50;;
15116;SDS011;7659;51.038;13.786;2023-02-28T03:03:58;11.10;;;6.20;;
15116;SDS011;7659;51.038;13.786;2023-02-28T03:06:25;12.38;;;7.20;;
15116;SDS011;7659;51.038;13.786;2023-02-28T03:08:50;13.52;;;6.55;;
15116;SDS011;7659;51.038;13.786;2023-02-28T03:11:16;14.32;;;7.10;;
15116;SDS011;7659;51.038;13.786;2023-02-28T03:23:47;12.65;;;6.53;;
15116;SDS011;7659;51.038;13.786;2023-02-28T03:26:21;11.98;;;6.78;;
15116;SDS011;7659;51.038;13.786;2023-02-28T03:31:26;11.30;;;6.65;;
15116;SDS011;7659;51.038;13.786;2023-02-28T03:34:15;12.85;;;7.25;;
15116;SDS011;7659;51.038;13.786;2023-02-28T03:36:40;12.95;;;6.60;;
15116;SDS011;7659;51.038;13.786;2023-02-28T03:39:16;12.43;;;7.07;;
15116;SDS011;7659;51.038;13.786;2023-02-28T03:44:17;12.93;;;7.70;;
15116;SDS011;7659;51.038;13.786;2023-02-28T03:47:26;15.38;;;8.85;;
15116;SDS011;7659;51.038;13.786;2023-02-28T03:49:32;14.25;;;7.80;;
15116;SDS011;7659;51.038;13.786;2023-02-28T03:52:00;16.27;;;7.88;;
15116;SDS011;7659;51.038;13.786;2023-02-28T03:54:31;12.98;;;9.00;;
15116;SDS011;7659;51.038;13.786;2023-02-28T03:56:59;15.25;;;8.68;;
15116;SDS011;7659;51.038;13.786;2023-02-28T03:59:30;12.77;;;8.52;;
15116;SDS011;7659;51.038;13.786;2023-02-28T04:01:57;20.45;;;9.43;;
15116;SDS011;7659;51.038;13.786;2023-02-28T04:04:23;15.57;;;8.68;;
15116;SDS011;7659;51.038;13.786;2023-02-28T04:06:52;19.45;;;9.48;;
15116;SDS011;7659;51.038;13.786;2023-02-28T04:09:18;15.07;;;9.35;;
15116;SDS011;7659;51.038;13.786;2023-02-28T04:11:44;18.30;;;9.32;;
15116;SDS011;7659;51.038;13.786;2023-02-28T04:14:10;13.45;;;8.43;;
15116;SDS011;7659;51.038;13.786;2023-02-28T04:16:37;15.10;;;9.23;;
15116;SDS011;7659;51.038;13.786;2023-02-28T04:19:03;16.27;;;9.43;;
15116;SDS011;7659;51.038;13.786;2023-02-28T04:21:34;17.70;;;9.35;;
15116;SDS011;7659;51.038;13.786;2023-02-28T04:23:59;16.00;;;9.23;;
15116;SDS011;7659;51.038;13.786;2023-02-28T04:26:28;16.42;;;9.55;;
15116;SDS011;7659;51.038;13.786;2023-02-28T04:28:53;18.25;;;8.57;;
15116;SDS011;7659;51.038;13.786;2023-02-28T04:31:19;14.93;;;9.18;;
15116;SDS011;7659;51.038;13.786;2023-02-28T04:33:44;15.43;;;8.90;;
15116;SDS011;7659;51.038;13.786;2023-02-28T04:36:10;13.88;;;8.75;;
15116;SDS011;7659;51.038;13.786;2023-02-28T04:38:36;19.08;;;9.40;;
15116;SDS011;7659;51.038;13.786;2023-02-28T04:41:02;17.20;;;10.00;;
15116;SDS011;7659;51.038;13.786;2023-02-28T04:43:28;17.30;;;9.63;;
15116;SDS011;7659;51.038;13.786;2023-02-28T04:45:54;16.33;;;9.85;;
15116;SDS011;7659;51.038;13.786;2023-02-28T04:48:24;18.27;;;10.43;;
15116;SDS011;7659;51.038;13.786;2023-02-28T04:50:50;16.45;;;10.32;;
15116;SDS011;7659;51.038;13.786;2023-02-28T04:53:16;14.98;;;10.35;;
15116;SDS011;7659;51.038;13.786;2023-02-28T04:55:41;16.38;;;9.95;;
15116;SDS011;7659;51.038;13.786;2023-02-28T04:58:07;16.40;;;10.07;;
15116;SDS011;7659;51.038;13.786;2023-02-28T05:00:32;17.80;;;10.50;;
15116;SDS011;7659;51.038;13.786;2023-02-28T05:02:58;17.83;;;9.63;;
15116;SDS011;7659;51.038;13.786;2023-02-28T05:05:23;19.77;;;10.80;;
15116;SDS011;7659;51.038;13.786;2023-02-28T05:07:48;19.58;;;10.38;;
15116;SDS011;7659;51.038;13.786;2023-02-28T05:10:14;18.02;;;10.85;;
15116;SDS011;7659;51.038;13.786;2023-02-28T05:12:39;17.95;;;10.95;;
15116;SDS011;7659;51.038;13.786;2023-02-28T05:15:05;19.83;;;11.48;;
15116;SDS011;7659;51.038;13.786;2023-02-28T05:17:31;30.05;;;11.85;;
15116;SDS011;7659;51.038;13.786;2023-02-28T05:19:56;17.63;;;10.65;;
15116;SDS011;7659;51.038;13.786;2023-02-28T05:22:22;19.17;;;11.25;;
15116;SDS011;7659;51.038;13.786;2023-02-28T05:24:47;19.58;;;10.60;;
15116;SDS011;7659;51.038;13.786;2023-02-28T05:27:13;19.20;;;10.80;;
15116;SDS011;7659;51.038;13.786;2023-02-28T05:29:38;19.15;;;11.80;;
15116;SDS011;7659;51.038;13.786;2023-02-28T05:32:10;15.60;;;10.65;;
15116;SDS011;7659;51.038;13.786;2023-02-28T05:34:37;17.75;;;11.02;;
15116;SDS011;7659;51.038;13.786;2023-02-28T05:37:03;19.80;;;11.18;;
15116;SDS011;7659;51.038;13.786;2023-02-28T05:39:28;16.13;;;10.48;;
15116;SDS011;7659;51.038;13.786;2023-02-28T05:41:53;18.73;;;11.13;;
15116;SDS011;7659;51.038;13.786;2023-02-28T05:44:19;19.33;;;11.70;;
15116;SDS011;7659;51.038;13.786;2023-02-28T05:46:44;20.23;;;11.20;;
15116;SDS011;7659;51.038;13.786;2023-02-28T05:49:10;17.58;;;11.70;;
15116;SDS011;7659;51.038;13.786;2023-02-28T05:51:35;17.33;;;11.05;;
15116;SDS011;7659;51.038;13.786;2023-02-28T05:54:04;19.30;;;11.50;;
15116;SDS011;7659;51.038;13.786;2023-02-28T05:56:30;17.42;;;11.27;;
15116;SDS011;7659;51.038;13.786;2023-02-28T05:58:55;17.27;;;11.27;;
15116;SDS011;7659;51.038;13.786;2023-02-28T06:01:22;18.23;;;11.30;;
15116;SDS011;7659;51.038;13.786;2023-02-28T06:03:48;18.58;;;11.27;;
15116;SDS011;7659;51.038;13.786;2023-02-28T06:06:14;18.75;;;11.98;;
15116;SDS011;7659;51.038;13.786;2023-02-28T06:08:39;17.65;;;11.50;;
15116;SDS011;7659;51.038;13.786;2023-02-28T06:11:05;19.83;;;12.07;;
15116;SDS011;7659;51.038;13.786;2023-02-28T06:13:31;20.73;;;12.63;;
15116;SDS011;7659;51.038;13.786;2023-02-28T06:16:00;20.13;;;11.50;;
15116;SDS011;7659;51.038;13.786;2023-02-28T06:18:25;21.50;;;11.88;;
15116;SDS011;7659;51.038;13.786;2023-02-28T06:20:54;24.20;;;12.10;;
15116;SDS011;7659;51.038;13.786;2023-02-28T06:23:20;17.20;;;11.32;;
15116;SDS011;7659;51.038;13.786;2023-02-28T06:25:46;17.20;;;11.65;;
15116;SDS011;7659;51.038;13.786;2023-02-28T06:28:11;24.27;;;13.02;;
15116;SDS011;7659;51.038;13.786;2023-02-28T06:30:37;19.88;;;12.38;;
15116;SDS011;7659;51.038;13.786;2023-02-28T06:33:03;23.60;;;12.02;;
15116;SDS011;7659;51.038;13.786;2023-02-28T06:35:28;21.35;;;12.20;;
15116;SDS011;7659;51.038;13.786;2023-02-28T06:37:54;23.80;;;12.48;;
15116;SDS011;7659;51.038;13.786;2023-02-28T06:40:20;20.02;;;12.23;;
15116;SDS011;7659;51.038;13.786;2023-02-28T06:42:45;19.70;;;12.60;;
15116;SDS011;7659;51.038;13.786;2023-02-28T06:45:11;21.17;;;12.02;;
15116;SDS011;7659;51.038;13.786;2023-02-28T06:47:40;20.77;;;12.48;;
15116;SDS011;7659;51.038;13.786;2023-02-28T06:50:06;23.15;;;12.43;;
15116;SDS011;7659;51.038;13.786;2023-02-28T06:52:34;25.45;;;11.57;;
15116;SDS011;7659;51.038;13.786;2023-02-28T06:55:03;23.75;;;12.43;;
15116;SDS011;7659;51.038;13.786;2023-02-28T06:57:29;21.13;;;11.68;;
15116;SDS011;7659;51.038;13.786;2023-02-28T06:59:58;19.65;;;11.85;;
15116;SDS011;7659;51.038;13.786;2023-02-28T07:02:24;19.88;;;12.80;;
15116;SDS011;7659;51.038;13.786;2023-02-28T07:04:49;21.77;;;12.27;;
15116;SDS011;7659;51.038;13.786;2023-02-28T07:07:15;20.88;;;12.25;;
15116;SDS011;7659;51.038;13.786;2023-02-28T07:09:40;19.67;;;11.25;;
15116;SDS011;7659;51.038;13.786;2023-02-28T07:12:06;22.55;;;11.93;;
15116;SDS011;7659;51.038;13.786;2023-02-28T07:14:31;19.85;;;10.82;;
15116;SDS011;7659;51.038;13.786;2023-02-28T07:16:57;17.63;;;10.82;;
15116;SDS011;7659;51.038;13.786;2023-02-28T07:19:22;19.98;;;9.48;;
15116;SDS011;7659;51.038;13.786;2023-02-28T07:21:48;17.55;;;9.90;;
15116;SDS011;7659;51.038;13.786;2023-02-28T07:24:13;19.10;;;10.10;;
15116;SDS011;7659;51.038;13.786;2023-02-28T07:26:40;15.23;;;9.38;;
15116;SDS011;7659;51.038;13.786;2023-02-28T07:29:06;16.48;;;9.75;;
15116;SDS011;7659;51.038;13.786;2023-02-28T07:31:31;18.63;;;10.18;;
15116;SDS011;7659;51.038;13.786;2023-02-28T07:33:57;16.05;;;9.90;;
15116;SDS011;7659;51.038;13.786;2023-02-28T07:36:22;16.90;;;10.38;;
15116;SDS011;7659;51.038;13.786;2023-02-28T07:38:48;17.90;;;9.52;;
15116;SDS011;7659;51.038;13.786;2023-02-28T07:41:18;19.40;;;10.20;;
15116;SDS011;7659;51.038;13.786;2023-02-28T07:43:44;21.02;;;11.00;;
15116;SDS011;7659;51.038;13.786;2023-02-28T07:46:11;19.02;;;9.98;;
15116;SDS011;7659;51.038;13.786;2023-02-28T07:48:37;18.50;;;10.88;;
15116;SDS011;7659;51.038;13.786;2023-02-28T07:51:02;16.42;;;9.88;;
15116;SDS011;7659;51.038;13.786;2023-02-28T07:53:28;17.42;;;10.48;;
15116;SDS011;7659;51.038;13.786;2023-02-28T07:55:54;20.65;;;10.30;;
15116;SDS011;7659;51.038;13.786;2023-02-28T07:58:20;18.65;;;11.02;;
15116;SDS011;7659;51.038;13.786;2023-02-28T08:00:45;19.05;;;10.93;;
15116;SDS011;7659;51.038;13.786;2023-02-28T08:03:11;19.85;;;10.35;;
15116;SDS011;7659;51.038;13.786;2023-02-28T08:05:40;19.52;;;11.32;;
15116;SDS011;7659;51.038;13.786;2023-02-28T08:08:06;22.05;;;11.20;;
15116;SDS011;7659;51.038;13.786;2023-02-28T08:10:31;22.48;;;12.10;;
15116;SDS011;7659;51.038;13.786;2023-02-28T08:12:57;16.95;;;10.45;;
15116;SDS011;7659;51.038;13.786;2023-02-28T08:15:22;22.00;;;11.60;;
15116;SDS011;7659;51.038;13.786;2023-02-28T08:17:48;21.05;;;11.25;;
15116;SDS011;7659;51.038;13.786;2023-02-28T08:20:13;24.92;;;11.05;;
15116;SDS011;7659;51.038;13.786;2023-02-28T08:22:39;19.45;;;10.07;;
15116;SDS011;7659;51.038;13.786;2023-02-28T08:25:04;21.23;;;11.07;;
15116;SDS011;7659;51.038;13.786;2023-02-28T08:27:32;23.48;;;12.07;;
15116;SDS011;7659;51.038;13.786;2023-02-28T08:29:57;20.30;;;12.07;;
15116;SDS011;7659;51.038;13.786;2023-02-28T08:32:23;20.58;;;11.02;;
15116;SDS011;7659;51.038;13.786;2023-02-28T08:34:48;18.15;;;11.23;;
15116;SDS011;7659;51.038;13.786;2023-02-28T08:37:14;27.27;;;13.15;;
15116;SDS011;7659;51.038;13.786;2023-02-28T08:39:39;22.63;;;11.45;;
15116;SDS011;7659;51.038;13.786;2023-02-28T08:42:05;21.17;;;11.60;;
15116;SDS011;7659;51.038;13.786;2023-02-28T08:44:30;18.38;;;11.38;;
15116;SDS011;7659;51.038;13.786;2023-02-28T08:46:56;17.73;;;10.82;;
15116;SDS011;7659;51.038;13.786;2023-02-28T08:49:21;22.50;;;12.13;;
15116;SDS011;7659;51.038;13.786;2023-02-28T08:51:46;21.83;;;11.75;;
15116;SDS011;7659;51.038;13.786;2023-02-28T08:54:12;17.63;;;10.82;;
15116;SDS011;7659;51.038;13.786;2023-02-28T08:56:38;21.90;;;10.93;;
15116;SDS011;7659;51.038;13.786;2023-02-28T08:59:04;19.33;;;10.55;;
15116;SDS011;7659;51.038;13.786;2023-02-28T09:01:29;21.23;;;10.38;;
15116;SDS011;7659;51.038;13.786;2023-02-28T09:03:55;17.80;;;10.20;;
15116;SDS011;7659;51.038;13.786;2023-02-28T09:06:22;16.10;;;9.90;;
15116;SDS011;7659;51.038;13.786;2023-02-28T09:08:47;19.95;;;10.38;;
15116;SDS011;7659;51.038;13.786;2023-02-28T09:11:13;18.40;;;10.63;;
15116;SDS011;7659;51.038;13.786;2023-02-28T09:13:39;17.75;;;10.40;;
15116;SDS011;7659;51.038;13.786;2023-02-28T09:16:05;15.27;;;9.40;;
15116;SDS011;7659;51.038;13.786;2023-02-28T09:18:31;13.25;;;9.45;;
15116;SDS011;7659;51.038;13.786;2023-02-28T09:20:58;18.38;;;9.48;;
15116;SDS011;7659;51.038;13.786;2023-02-28T09:23:24;14.75;;;9.20;;
15116;SDS011;7659;51.038;13.786;2023-02-28T09:25:50;21.45;;;10.52;;
15116;SDS011;7659;51.038;13.786;2023-02-28T09:28:16;16.95;;;9.32;;
15116;SDS011;7659;51.038;13.786;2023-02-28T09:30:43;18.60;;;9.93;;
15116;SDS011;7659;51.038;13.786;2023-02-28T09:33:09;16.15;;;9.73;;
15116;SDS011;7659;51.038;13.786;2023-02-28T09:35:35;18.52;;;9.60;;
15116;SDS011;7659;51.038;13.786;2023-02-28T09:38:02;19.35;;;9.38;;
15116;SDS011;7659;51.038;13.786;2023-02-28T09:40:28;15.80;;;9.07;;
15116;SDS011;7659;51.038;13.786;2023-02-28T09:42:55;16.83;;;8.90;;
15116;SDS011;7659;51.038;13.786;2023-02-28T09:45:33;16.00;;;8.05;;
15116;SDS011;7659;51.038;13.786;2023-02-28T09:48:04;14.82;;;7.82;;
15116;SDS011;7659;51.038;13.786;2023-02-28T09:53:04;14.82;;;7.57;;
15116;SDS011;7659;51.038;13.786;2023-02-28T09:55:39;13.55;;;8.20;;
15116;SDS011;7659;51.038;13.786;2023-02-28T09:58:11;11.38;;;6.85;;
15116;SDS011;7659;51.038;13.786;2023-02-28T10:00:40;10.88;;;6.95;;
15116;SDS011;7659;51.038;13.786;2023-02-28T10:03:13;14.50;;;7.90;;
15116;SDS011;7659;51.038;13.786;2023-02-28T10:05:43;13.93;;;8.00;;
15116;SDS011;7659;51.038;13.786;2023-02-28T10:10:48;14.90;;;7.85;;
15116;SDS011;7659;51.038;13.786;2023-02-28T10:16:01;13.23;;;7.70;;
15116;SDS011;7659;51.038;13.786;2023-02-28T10:18:39;13.68;;;8.05;;
15116;SDS011;7659;51.038;13.786;2023-02-28T10:21:08;14.55;;;7.97;;
15116;SDS011;7659;51.038;13.786;2023-02-28T10:23:35;14.55;;;8.48;;
15116;SDS011;7659;51.038;13.786;2023-02-28T10:26:09;12.50;;;8.27;;
15116;SDS011;7659;51.038;13.786;2023-02-28T10:28:36;13.50;;;8.02;;
15116;SDS011;7659;51.038;13.786;2023-02-28T10:31:02;16.27;;;8.35;;
15116;SDS011;7659;51.038;13.786;2023-02-28T10:33:29;16.25;;;9.10;;
15116;SDS011;7659;51.038;13.786;2023-02-28T10:35:55;15.90;;;8.88;;
15116;SDS011;7659;51.038;13.786;2023-02-28T10:38:22;16.58;;;8.88;;
15116;SDS011;7659;51.038;13.786;2023-02-28T10:40:48;15.35;;;8.48;;
15116;SDS011;7659;51.038;13.786;2023-02-28T10:45:40;17.40;;;8.38;;
15116;SDS011;7659;51.038;13.786;2023-02-28T10:58:33;14.50;;;8.35;;
15116;SDS011;7659;51.038;13.786;2023-02-28T11:01:12;14.85;;;9.02;;
15116;SDS011;7659;51.038;13.786;2023-02-28T11:03:38;14.60;;;8.73;;
15116;SDS011;7659;51.038;13.786;2023-02-28T11:06:05;17.77;;;9.52;;
15116;SDS011;7659;51.038;13.786;2023-02-28T11:08:31;14.05;;;9.07;;
15116;SDS011;7659;51.038;13.786;2023-02-28T11:10:57;15.40;;;8.82;;
15116;SDS011;7659;51.038;13.786;2023-02-28T11:13:33;14.93;;;8.15;;
15116;SDS011;7659;51.038;13.786;2023-02-28T11:16:00;17.58;;;9.00;;
15116;SDS011;7659;51.038;13.786;2023-02-28T11:18:29;15.05;;;8.75;;
15116;SDS011;7659;51.038;13.786;2023-02-28T11:20:55;14.35;;;8.02;;
15116;SDS011;7659;51.038;13.786;2023-02-28T11:23:23;17.40;;;8.65;;
15116;SDS011;7659;51.038;13.786;2023-02-28T11:25:50;13.98;;;8.13;;
15116;SDS011;7659;51.038;13.786;2023-02-28T11:28:27;12.65;;;7.93;;
15116;SDS011;7659;51.038;13.786;2023-02-28T11:31:26;13.32;;;8.35;;
15116;SDS011;7659;51.038;13.786;2023-02-28T11:38:39;15.38;;;8.48;;
15116;SDS011;7659;51.038;13.786;2023-02-28T11:43:37;11.75;;;7.25;;
15116;SDS011;7659;51.038;13.786;2023-02-28T11:51:13;13.00;;;8.13;;
15116;SDS011;7659;51.038;13.786;2023-02-28T11:56:31;15.10;;;7.88;;
15116;SDS011;7659;51.038;13.786;2023-02-28T11:59:02;12.20;;;7.82;;
15116;SDS011;7659;51.038;13.786;2023-02-28T12:01:33;13.13;;;7.95;;
15116;SDS011;7659;51.038;13.786;2023-02-28T12:11:44;12.15;;;7.25;;
15116;SDS011;7659;51.038;13.786;2023-02-28T12:17:02;12.70;;;7.63;;
15116;SDS011;7659;51.038;13.786;2023-02-28T12:24:51;18.13;;;7.95;;
15116;SDS011;7659;51.038;13.786;2023-02-28T12:29:48;13.82;;;8.45;;
15116;SDS011;7659;51.038;13.786;2023-02-28T12:32:26;13.50;;;7.88;;
15116;SDS011;7659;51.038;13.786;2023-02-28T12:35:04;13.60;;;7.40;;
15116;SDS011;7659;51.038;13.786;2023-02-28T12:37:36;10.10;;;6.60;;
15116;SDS011;7659;51.038;13.786;2023-02-28T12:40:05;12.27;;;8.20;;
15116;SDS011;7659;51.038;13.786;2023-02-28T12:42:33;11.95;;;7.57;;
15116;SDS011;7659;51.038;13.786;2023-02-28T12:45:03;13.05;;;8.45;;
15116;SDS011;7659;51.038;13.786;2023-02-28T12:47:29;17.33;;;9.65;;
15116;SDS011;7659;51.038;13.786;2023-02-28T12:49:59;15.60;;;9.23;;
15116;SDS011;7659;51.038;13.786;2023-02-28T12:52:29;15.18;;;8.50;;
15116;SDS011;7659;51.038;13.786;2023-02-28T12:55:00;13.57;;;7.93;;
15116;SDS011;7659;51.038;13.786;2023-02-28T12:57:38;12.57;;;7.43;;
15116;SDS011;7659;51.038;13.786;2023-02-28T13:00:10;12.55;;;7.75;;
15116;SDS011;7659;51.038;13.786;2023-02-28T13:10:37;18.02;;;9.00;;
15116;SDS011;7659;51.038;13.786;2023-02-28T13:13:04;16.10;;;8.80;;
15116;SDS011;7659;51.038;13.786;2023-02-28T13:15:29;16.83;;;9.43;;
15116;SDS011;7659;51.038;13.786;2023-02-28T13:17:56;17.10;;;9.57;;
15116;SDS011;7659;51.038;13.786;2023-02-28T13:20:26;18.35;;;9.32;;
15116;SDS011;7659;51.038;13.786;2023-02-28T13:22:53;17.67;;;9.68;;
15116;SDS011;7659;51.038;13.786;2023-02-28T13:27:47;14.55;;;9.32;;
15116;SDS011;7659;51.038;13.786;2023-02-28T13:35:48;14.63;;;9.70;;
15116;SDS011;7659;51.038;13.786;2023-02-28T13:38:24;16.45;;;9.93;;
15116;SDS011;7659;51.038;13.786;2023-02-28T13:40:50;17.80;;;9.57;;
15116;SDS011;7659;51.038;13.786;2023-02-28T13:43:16;13.85;;;9.27;;
15116;SDS011;7659;51.038;13.786;2023-02-28T13:46:10;13.95;;;9.23;;
15116;SDS011;7659;51.038;13.786;2023-02-28T13:48:27;13.65;;;8.90;;
15116;SDS011;7659;51.038;13.786;2023-02-28T13:50:54;15.95;;;9.80;;
15116;SDS011;7659;51.038;13.786;2023-02-28T13:55:46;11.45;;;8.63;;
15116;SDS011;7659;51.038;13.786;2023-02-28T14:03:15;13.75;;;8.18;;
15116;SDS011;7659;51.038;13.786;2023-02-28T14:05:44;11.77;;;8.02;;
15116;SDS011;7659;51.038;13.786;2023-02-28T14:08:14;11.20;;;8.43;;
15116;SDS011;7659;51.038;13.786;2023-02-28T14:10:45;12.55;;;8.38;;
15116;SDS011;7659;51.038;13.786;2023-02-28T14:15:44;13.60;;;8.63;;
15116;SDS011;7659;51.038;13.786;2023-02-28T14:18:16;11.15;;;7.75;;
15116;SDS011;7659;51.038;13.786;2023-02-28T14:20:42;12.10;;;8.07;;
15116;SDS011;7659;51.038;13.786;2023-02-28T14:25:55;12.93;;;8.68;;
15116;SDS011;7659;51.038;13.786;2023-02-28T14:31:18;11.43;;;7.80;;
15116;SDS011;7659;51.038;13.786;2023-02-28T14:36:32;11.27;;;7.88;;
15116;SDS011;7659;51.038;13.786;2023-02-28T14:39:06;10.88;;;7.53;;
15116;SDS011;7659;51.038;13.786;2023-02-28T14:44:01;10.85;;;7.38;;
15116;SDS011;7659;51.038;13.786;2023-02-28T14:46:28;11.75;;;8.55;;
15116;SDS011;7659;51.038;13.786;2023-02-28T14:48:55;12.20;;;7.95;;
15116;SDS011;7659;51.038;13.786;2023-02-28T14:51:21;14.27;;;8.15;;
15116;SDS011;7659;51.038;13.786;2023-02-28T14:53:48;11.27;;;8.30;;
15116;SDS011;7659;51.038;13.786;2023-02-28T14:56:19;11.35;;;8.80;;
15116;SDS011;7659;51.038;13.786;2023-02-28T14:58:50;13.15;;;9.00;;
15116;SDS011;7659;51.038;13.786;2023-02-28T15:01:18;15.07;;;8.80;;
15116;SDS011;7659;51.038;13.786;2023-02-28T15:03:44;10.68;;;8.20;;
15116;SDS011;7659;51.038;13.786;2023-02-28T15:06:14;15.20;;;9.27;;
15116;SDS011;7659;51.038;13.786;2023-02-28T15:08:39;13.48;;;9.65;;
15116;SDS011;7659;51.038;13.786;2023-02-28T15:11:06;14.75;;;9.82;;
15116;SDS011;7659;51.038;13.786;2023-02-28T15:16:01;14.88;;;10.38;;
15116;SDS011;7659;51.038;13.786;2023-02-28T15:18:30;14.90;;;10.40;;
15116;SDS011;7659;51.038;13.786;2023-02-28T15:21:02;16.80;;;10.65;;
15116;SDS011;7659;51.038;13.786;2023-02-28T15:23:28;14.80;;;9.35;;
15116;SDS011;7659;51.038;13.786;2023-02-28T15:25:54;16.30;;;10.75;;
15116;SDS011;7659;51.038;13.786;2023-02-28T15:28:20;15.50;;;10.07;;
15116;SDS011;7659;51.038;13.786;2023-02-28T15:30:51;13.95;;;10.30;;
15116;SDS011;7659;51.038;13.786;2023-02-28T15:33:19;15.88;;;11.02;;
15116;SDS011;7659;51.038;13.786;2023-02-28T15:35:44;16.90;;;11.05;;
15116;SDS011;7659;51.038;13.786;2023-02-28T15:38:15;16.48;;;11.00;;
15116;SDS011;7659;51.038;13.786;2023-02-28T15:40:41;12.82;;;10.23;;
15116;SDS011;7659;51.038;13.786;2023-02-28T15:45:34;17.17;;;11.10;;
15116;SDS011;7659;51.038;13.786;2023-02-28T15:48:04;15.77;;;10.30;;
15116;SDS011;7659;51.038;13.786;2023-02-28T15:50:29;17.52;;;11.50;;
15116;SDS011;7659;51.038;13.786;2023-02-28T15:52:55;16.65;;;11.23;;
15116;SDS011;7659;51.038;13.786;2023-02-28T15:55:22;20.17;;;11.25;;
15116;SDS011;7659;51.038;13.786;2023-02-28T15:57:50;18.63;;;11.85;;
15116;SDS011;7659;51.038;13.786;2023-02-28T16:00:18;17.33;;;11.48;;
15116;SDS011;7659;51.038;13.786;2023-02-28T16:02:44;19.05;;;12.20;;
15116;SDS011;7659;51.038;13.786;2023-02-28T16:07:36;18.98;;;11.25;;
15116;SDS011;7659;51.038;13.786;2023-02-28T16:10:02;20.65;;;12.50;;
15116;SDS011;7659;51.038;13.786;2023-02-28T16:12:28;21.00;;;12.80;;
15116;SDS011;7659;51.038;13.786;2023-02-28T16:14:55;17.63;;;11.77;;
15116;SDS011;7659;51.038;13.786;2023-02-28T16:17:25;18.10;;;12.10;;
15116;SDS011;7659;51.038;13.786;2023-02-28T16:19:51;18.67;;;11.95;;
15116;SDS011;7659;51.038;13.786;2023-02-28T16:22:17;19.48;;;12.25;;
15116;SDS011;7659;51.038;13.786;2023-02-28T16:24:42;21.60;;;13.38;;
15116;SDS011;7659;51.038;13.786;2023-02-28T16:27:18;22.55;;;12.93;;
15116;SDS011;7659;51.038;13.786;2023-02-28T16:29:44;18.92;;;12.80;;
15116;SDS011;7659;51.038;13.786;2023-02-28T16:32:11;22.48;;;12.40;;
15116;SDS011;7659;51.038;13.786;2023-02-28T16:34:37;19.65;;;12.13;;
15116;SDS011;7659;51.038;13.786;2023-02-28T16:37:04;20.10;;;12.90;;
15116;SDS011;7659;51.038;13.786;2023-02-28T16:39:30;24.27;;;14.25;;
15116;SDS011;7659;51.038;13.786;2023-02-28T16:41:55;22.35;;;13.95;;
15116;SDS011;7659;51.038;13.786;2023-02-28T16:44:28;21.45;;;12.98;;
15116;SDS011;7659;51.038;13.786;2023-02-28T16:46:54;21.15;;;13.35;;
15116;SDS011;7659;51.038;13.786;2023-02-28T16:49:19;19.40;;;12.77;;
15116;SDS011;7659;51.038;13.786;2023-02-28T16:51:46;20.80;;;13.02;;